Time;durP1;ratioP1;P1;durP2;ratioP2;P2;SDS_P1;SDS_P2;PMS_P1;PMS_P2;Temp;Humidity;BMP_temperature;BMP_pressure;BME280_temperature;BME280_humidity;BME280_pressure;Samples;Min_cycle;Max_cycle;Signal;HPM_P1;HPM_P2
2024/02/14 00:00:59;;;;;;;9.37;6.17;;;;;;;;;;5155787;27;20239;-77
2024/02/14 00:03:27;;;;;;;19.20;9.20;;;;;;;;;;5165616;27;20199;-77
2024/02/14 00:05:57;;;;;;;15.50;8.13;;;;;;;;;;5176823;27;20222;-77
2024/02/14 00:08:24;;;;;;;13.30;8.23;;;;;;;;;;5176744;27;20222;-77
2024/02/14 00:10:55;;;;;;;27.10;14.50;;;;;;;;;;5176853;27;20194;-77
2024/02/14 00:13:22;;;;;;;24.70;15.40;;;;;;;;;;5176996;27;20160;-77
2024/02/14 00:15:49;;;;;;;22.20;13.90;;;;;;;;;;5176802;27;20186;-77
2024/02/14 00:18:20;;;;;;;35.27;22.97;;;;;;;;;;5175042;27;20242;-77
2024/02/14 00:20:48;;;;;;;22.50;13.87;;;;;;;;;;5163972;27;20223;-77
2024/02/14 00:23:15;;;;;;;13.47;11.13;;;;;;;;;;5156448;27;20199;-77
2024/02/14 00:25:44;;;;;;;13.57;7.97;;;;;;;;;;5157342;27;20293;-77
2024/02/14 00:28:13;;;;;;;7.97;5.33;;;;;;;;;;5156067;27;20281;-78
2024/02/14 00:30:40;;;;;;;8.93;5.87;;;;;;;;;;5156755;27;20331;-76
2024/02/14 00:33:08;;;;;;;11.53;6.90;;;;;;;;;;5165529;27;20183;-78
2024/02/14 00:35:49;;;;;;;18.33;10.03;;;;;;;;;;5155238;27;20238;-78
2024/02/14 00:38:18;;;;;;;15.43;8.87;;;;;;;;;;5155613;27;20516;-78
2024/02/14 00:40:47;;;;;;;15.70;8.80;;;;;;;;;;5155185;27;20611;-78
2024/02/14 00:43:15;;;;;;;15.77;10.17;;;;;;;;;;5155148;27;20270;-78
2024/02/14 00:45:45;;;;;;;16.03;10.67;;;;;;;;;;5155627;27;20245;-78
2024/02/14 00:48:12;;;;;;;14.50;9.67;;;;;;;;;;5155112;27;20194;-78
2024/02/14 00:50:41;;;;;;;11.63;8.80;;;;;;;;;;5155225;27;20214;-78
2024/02/14 00:53:09;;;;;;;12.70;8.30;;;;;;;;;;5154273;27;20568;-78
2024/02/14 00:55:35;;;;;;;12.20;8.10;;;;;;;;;;5154390;27;20265;-78
2024/02/14 00:58:04;;;;;;;14.60;7.70;;;;;;;;;;5154000;27;20234;-78
2024/02/14 01:00:32;;;;;;;12.77;7.67;;;;;;;;;;5154000;27;20341;-77
2024/02/14 01:03:02;;;;;;;12.73;7.17;;;;;;;;;;5154068;27;20198;-77
2024/02/14 01:05:29;;;;;;;7.57;5.57;;;;;;;;;;5153991;27;20274;-77
2024/02/14 01:07:58;;;;;;;11.33;6.23;;;;;;;;;;5154467;27;20190;-77
2024/02/14 01:10:26;;;;;;;8.73;5.57;;;;;;;;;;5155235;27;20265;-78
2024/02/14 01:12:56;;;;;;;15.67;10.00;;;;;;;;;;5154830;27;20278;-77
2024/02/14 01:15:23;;;;;;;10.57;6.63;;;;;;;;;;5155044;27;20211;-78
2024/02/14 01:17:51;;;;;;;8.97;6.73;;;;;;;;;;5155286;27;20273;-78
2024/02/14 01:20:20;;;;;;;8.93;6.10;;;;;;;;;;5155204;27;20211;-77
2024/02/14 01:22:50;;;;;;;6.33;3.73;;;;;;;;;;5156375;27;20233;-78
2024/02/14 01:25:32;;;;;;;2.40;2.17;;;;;;;;;;5156573;27;20209;-77
2024/02/14 01:28:00;;;;;;;3.10;2.77;;;;;;;;;;5156628;27;20210;-78
2024/02/14 01:30:28;;;;;;;3.03;2.40;;;;;;;;;;5156464;27;20217;-79
2024/02/14 01:32:56;;;;;;;3.83;2.80;;;;;;;;;;5155491;27;20238;-78
2024/02/14 01:35:23;;;;;;;2.93;2.30;;;;;;;;;;5155803;27;20191;-77
2024/02/14 01:37:52;;;;;;;2.70;2.20;;;;;;;;;;5155430;27;20194;-77
2024/02/14 01:40:21;;;;;;;3.07;2.40;;;;;;;;;;5155306;27;20587;-78
2024/02/14 01:42:52;;;;;;;6.20;2.20;;;;;;;;;;5155205;27;20201;-78
2024/02/14 01:45:19;;;;;;;3.00;2.60;;;;;;;;;;5156658;27;20767;-79
2024/02/14 01:47:47;;;;;;;13.13;7.33;;;;;;;;;;5155976;27;20566;-79
2024/02/14 01:50:15;;;;;;;24.93;13.13;;;;;;;;;;5156204;27;20215;-78
2024/02/14 01:52:43;;;;;;;28.03;15.80;;;;;;;;;;5156146;27;20850;-79
2024/02/14 01:55:10;;;;;;;26.23;14.33;;;;;;;;;;5156076;27;20225;-78
2024/02/14 01:57:39;;;;;;;15.53;8.17;;;;;;;;;;5155930;27;20253;-78
2024/02/14 02:00:15;;;;;;;13.80;9.10;;;;;;;;;;5155883;27;20210;-79
2024/02/14 02:02:46;;;;;;;16.93;9.27;;;;;;;;;;5156103;27;20278;-79
2024/02/14 02:05:15;;;;;;;8.43;4.93;;;;;;;;;;5156322;27;20214;-79
2024/02/14 02:07:48;;;;;;;4.23;3.33;;;;;;;;;;5156040;27;20505;-78
2024/02/14 02:10:16;;;;;;;5.77;3.57;;;;;;;;;;5156259;27;20217;-79
2024/02/14 02:12:46;;;;;;;3.10;2.80;;;;;;;;;;5156078;27;20203;-78
2024/02/14 02:15:14;;;;;;;3.00;2.70;;;;;;;;;;5156379;27;20265;-78
2024/02/14 02:17:41;;;;;;;4.83;2.77;;;;;;;;;;5156253;27;20195;-78
2024/02/14 02:20:10;;;;;;;2.33;2.13;;;;;;;;;;5155905;27;20227;-78
2024/02/14 02:22:38;;;;;;;3.07;2.63;;;;;;;;;;5155986;27;20183;-78
2024/02/14 02:25:09;;;;;;;4.37;2.63;;;;;;;;;;5155862;27;20207;-78
2024/02/14 02:27:37;;;;;;;3.63;2.50;;;;;;;;;;5156467;27;20269;-78
2024/02/14 02:30:08;;;;;;;3.50;2.60;;;;;;;;;;5156267;27;20202;-78
2024/02/14 02:32:35;;;;;;;3.07;2.63;;;;;;;;;;5155815;27;20243;-78
2024/02/14 02:35:04;;;;;;;5.47;3.37;;;;;;;;;;5156120;27;20291;-78
2024/02/14 02:37:31;;;;;;;4.33;3.47;;;;;;;;;;5155651;27;20201;-78
2024/02/14 02:40:02;;;;;;;5.60;3.87;;;;;;;;;;5155873;27;20202;-78
2024/02/14 02:42:35;;;;;;;6.87;4.10;;;;;;;;;;5155696;27;20925;-78
2024/02/14 02:45:05;;;;;;;5.97;4.13;;;;;;;;;;5155782;27;20578;-78
2024/02/14 02:47:36;;;;;;;5.63;4.20;;;;;;;;;;5155436;27;20275;-78
2024/02/14 02:50:05;;;;;;;5.93;4.33;;;;;;;;;;5156257;27;20198;-78
2024/02/14 02:52:33;;;;;;;4.70;4.00;;;;;;;;;;5156256;27;20206;-78
2024/02/14 02:55:02;;;;;;;7.07;4.90;;;;;;;;;;5155787;27;20536;-78
2024/02/14 02:57:32;;;;;;;6.20;4.20;;;;;;;;;;5156275;27;20222;-78
2024/02/14 03:00:00;;;;;;;6.17;4.50;;;;;;;;;;5156556;27;20478;-77
2024/02/14 03:02:28;;;;;;;6.73;4.17;;;;;;;;;;5155971;27;20344;-77
2024/02/14 03:04:59;;;;;;;5.20;4.17;;;;;;;;;;5158561;27;20496;-77
2024/02/14 03:07:27;;;;;;;6.47;3.97;;;;;;;;;;5158128;27;20591;-78
2024/02/14 03:09:55;;;;;;;3.93;3.40;;;;;;;;;;5157720;27;20249;-78
2024/02/14 03:12:23;;;;;;;3.80;3.43;;;;;;;;;;5157050;27;20274;-78
2024/02/14 03:14:51;;;;;;;4.73;4.17;;;;;;;;;;5155304;27;20205;-77
2024/02/14 03:17:21;;;;;;;17.00;9.17;;;;;;;;;;5155060;27;20225;-77
2024/02/14 03:19:51;;;;;;;77.80;41.17;;;;;;;;;;5155860;27;20175;-77
2024/02/14 03:22:22;;;;;;;64.57;34.00;;;;;;;;;;5155605;27;20814;-77
2024/02/14 03:24:50;;;;;;;55.30;29.37;;;;;;;;;;5155288;27;20567;-77
2024/02/14 03:27:23;;;;;;;26.17;15.60;;;;;;;;;;5155315;27;20206;-76
2024/02/14 03:29:52;;;;;;;17.40;8.97;;;;;;;;;;5155975;27;20203;-77
2024/02/14 03:32:20;;;;;;;11.30;7.43;;;;;;;;;;5155008;27;20262;-77
2024/02/14 03:34:50;;;;;;;12.97;7.30;;;;;;;;;;5155983;27;20203;-76
2024/02/14 03:37:18;;;;;;;21.73;9.93;;;;;;;;;;5155961;27;20205;-76
2024/02/14 03:39:49;;;;;;;17.20;8.97;;;;;;;;;;5156057;27;20187;-77
2024/02/14 03:42:16;;;;;;;14.70;7.93;;;;;;;;;;5155793;27;20221;-76
2024/02/14 03:44:45;;;;;;;8.77;5.53;;;;;;;;;;5155465;27;20202;-77
2024/02/14 03:47:29;;;;;;;6.93;4.43;;;;;;;;;;5155308;27;20289;-77
2024/02/14 03:49:59;;;;;;;6.17;4.53;;;;;;;;;;5137386;27;20245;-77
2024/02/14 03:52:26;;;;;;;10.77;5.60;;;;;;;;;;5155274;27;20207;-77
2024/02/14 03:54:54;;;;;;;7.27;5.30;;;;;;;;;;5155674;27;20214;-76
2024/02/14 03:57:22;;;;;;;7.23;5.00;;;;;;;;;;5155205;27;20226;-77
2024/02/14 03:59:50;;;;;;;7.20;5.63;;;;;;;;;;5155430;27;20202;-77
2024/02/14 04:02:21;;;;;;;6.13;5.33;;;;;;;;;;5155075;27;20218;-78
2024/02/14 04:04:50;;;;;;;8.33;6.03;;;;;;;;;;5155160;27;20277;-77
2024/02/14 04:07:18;;;;;;;9.97;5.70;;;;;;;;;;5155090;27;20541;-77
2024/02/14 04:09:45;;;;;;;11.77;7.93;;;;;;;;;;5155558;27;20218;-77
2024/02/14 04:12:13;;;;;;;6.53;5.67;;;;;;;;;;5155526;27;20242;-76
2024/02/14 04:14:41;;;;;;;7.83;6.90;;;;;;;;;;5154466;27;20194;-78
2024/02/14 04:17:11;;;;;;;12.83;7.70;;;;;;;;;;5154628;27;20210;-77
2024/02/14 04:19:39;;;;;;;14.13;8.33;;;;;;;;;;5154854;27;20194;-77
2024/02/14 04:22:07;;;;;;;14.63;10.43;;;;;;;;;;5154503;27;20214;-77
2024/02/14 04:24:38;;;;;;;18.50;13.53;;;;;;;;;;5153291;27;20214;-77
2024/02/14 04:27:04;;;;;;;12.67;9.90;;;;;;;;;;5156825;27;20241;-77
2024/02/14 04:29:33;;;;;;;17.40;10.97;;;;;;;;;;5160789;27;20211;-76
2024/02/14 04:32:00;;;;;;;15.43;9.00;;;;;;;;;;5159426;27;20187;-76
2024/02/14 04:34:29;;;;;;;13.23;7.53;;;;;;;;;;5157539;27;20215;-77
2024/02/14 04:36:57;;;;;;;11.37;6.17;;;;;;;;;;5157655;27;20206;-77
2024/02/14 04:39:26;;;;;;;9.33;6.20;;;;;;;;;;5155479;27;20559;-76
2024/02/14 04:41:54;;;;;;;7.73;6.87;;;;;;;;;;5154727;27;20266;-76
2024/02/14 04:44:22;;;;;;;9.63;6.37;;;;;;;;;;5154465;27;20657;-77
2024/02/14 04:46:50;;;;;;;10.07;7.13;;;;;;;;;;5153446;27;20224;-77
2024/02/14 04:49:17;;;;;;;10.07;7.93;;;;;;;;;;5154171;27;20220;-77
2024/02/14 04:51:44;;;;;;;9.17;7.10;;;;;;;;;;5154050;27;20210;-77
2024/02/14 04:54:27;;;;;;;12.77;6.80;;;;;;;;;;5154350;27;20206;-78
2024/02/14 04:56:55;;;;;;;8.93;6.43;;;;;;;;;;5156148;27;20188;-78
2024/02/14 04:59:22;;;;;;;8.40;6.67;;;;;;;;;;5156154;27;20198;-77
2024/02/14 05:01:53;;;;;;;8.77;6.27;;;;;;;;;;5155416;27;20278;-78
2024/02/14 05:04:21;;;;;;;7.43;5.87;;;;;;;;;;5155462;27;20270;-78
2024/02/14 05:06:48;;;;;;;14.47;7.57;;;;;;;;;;5155857;27;20222;-77
2024/02/14 05:09:16;;;;;;;9.87;6.97;;;;;;;;;;5155521;27;20202;-77
2024/02/14 05:11:46;;;;;;;10.50;7.43;;;;;;;;;;5155698;27;20730;-78
2024/02/14 05:14:14;;;;;;;10.30;7.50;;;;;;;;;;5155315;27;20194;-77
2024/02/14 05:16:40;;;;;;;36.93;19.67;;;;;;;;;;5155274;27;20218;-78
2024/02/14 05:19:09;;;;;;;25.50;14.20;;;;;;;;;;5155297;27;20210;-78
2024/02/14 05:21:37;;;;;;;21.53;10.70;;;;;;;;;;5155412;27;20560;-77
2024/02/14 05:24:06;;;;;;;15.43;9.83;;;;;;;;;;5155582;27;20262;-78
2024/02/14 05:26:44;;;;;;;16.93;8.10;;;;;;;;;;5155062;27;20190;-78
2024/02/14 05:29:11;;;;;;;27.63;10.50;;;;;;;;;;5155184;27;20507;-78
2024/02/14 05:31:48;;;;;;;16.23;10.10;;;;;;;;;;5154891;27;20262;-78
2024/02/14 05:34:17;;;;;;;22.10;10.03;;;;;;;;;;5155172;27;20328;-78
2024/02/14 05:36:48;;;;;;;12.23;9.07;;;;;;;;;;5155710;27;20288;-77
2024/02/14 05:39:15;;;;;;;22.17;11.43;;;;;;;;;;5155231;27;20587;-77
2024/02/14 05:41:45;;;;;;;18.30;10.33;;;;;;;;;;5155267;27;20226;-79
2024/02/14 05:44:12;;;;;;;25.50;14.43;;;;;;;;;;5155056;27;20206;-78
2024/02/14 05:46:39;;;;;;;33.83;16.60;;;;;;;;;;5155046;27;20218;-78
2024/02/14 05:49:07;;;;;;;65.27;26.13;;;;;;;;;;5155408;27;20214;-77
2024/02/14 05:51:35;;;;;;;51.60;24.17;;;;;;;;;;5155587;27;20281;-77
2024/02/14 05:54:04;;;;;;;43.33;22.67;;;;;;;;;;5155310;27;20249;-78
2024/02/14 05:56:32;;;;;;;39.00;20.67;;;;;;;;;;5155086;27;20226;-78
2024/02/14 05:59:04;;;;;;;22.63;13.40;;;;;;;;;;5155091;27;20191;-78
2024/02/14 06:01:30;;;;;;;17.67;10.57;;;;;;;;;;5155231;27;20259;-78
2024/02/14 06:04:00;;;;;;;15.00;8.00;;;;;;;;;;5154564;27;20211;-77
2024/02/14 06:06:27;;;;;;;11.23;6.20;;;;;;;;;;5154808;27;20233;-78
2024/02/14 06:08:57;;;;;;;14.50;7.87;;;;;;;;;;5155420;27;20281;-78
2024/02/14 06:11:24;;;;;;;18.90;7.03;;;;;;;;;;5155323;27;20345;-78
2024/02/14 06:13:52;;;;;;;15.53;6.63;;;;;;;;;;5154606;27;20240;-77
2024/02/14 06:16:24;;;;;;;8.00;6.67;;;;;;;;;;5154262;27;20213;-78
2024/02/14 06:18:50;;;;;;;12.83;6.53;;;;;;;;;;5154787;27;20187;-78
2024/02/14 06:21:19;;;;;;;13.00;7.17;;;;;;;;;;5155204;27;20268;-77
2024/02/14 06:23:46;;;;;;;7.17;6.37;;;;;;;;;;5154848;27;20218;-78
2024/02/14 06:26:17;;;;;;;9.23;6.73;;;;;;;;;;5154336;27;20237;-79
2024/02/14 06:28:47;;;;;;;9.40;7.00;;;;;;;;;;5155170;27;20620;-77
2024/02/14 06:31:15;;;;;;;11.97;8.53;;;;;;;;;;5154449;27;20389;-78
2024/02/14 06:33:44;;;;;;;15.67;7.37;;;;;;;;;;5155267;27;20254;-78
2024/02/14 06:36:11;;;;;;;7.80;6.07;;;;;;;;;;5154704;27;20531;-78
2024/02/14 06:38:42;;;;;;;15.90;7.20;;;;;;;;;;5155076;27;20667;-78
2024/02/14 06:41:09;;;;;;;23.80;16.40;;;;;;;;;;5155119;27;20207;-77
2024/02/14 06:43:39;;;;;;;12.33;7.40;;;;;;;;;;5154768;27;20830;-78
2024/02/14 06:46:07;;;;;;;16.03;6.00;;;;;;;;;;5154947;27;20224;-78
2024/02/14 06:48:37;;;;;;;8.40;6.27;;;;;;;;;;5154612;27;20647;-79
2024/02/14 06:51:08;;;;;;;10.47;8.47;;;;;;;;;;5156112;27;20242;-78
2024/02/14 06:53:38;;;;;;;13.17;10.60;;;;;;;;;;5155991;27;20717;-79
2024/02/14 06:56:09;;;;;;;10.47;7.57;;;;;;;;;;5155816;27;20281;-77
2024/02/14 06:58:37;;;;;;;11.10;8.17;;;;;;;;;;5155785;27;20185;-79
2024/02/14 07:01:04;;;;;;;9.90;7.83;;;;;;;;;;5155338;27;20266;-79
2024/02/14 07:03:32;;;;;;;11.80;8.53;;;;;;;;;;5154901;27;20250;-78
2024/02/14 07:06:08;;;;;;;14.73;8.93;;;;;;;;;;5134985;28;20303;-78
2024/02/14 07:08:41;;;;;;;10.53;7.80;;;;;;;;;;5134487;28;20197;-78
2024/02/14 07:11:08;;;;;;;8.13;5.80;;;;;;;;;;5133864;27;20235;-78
2024/02/14 07:13:35;;;;;;;7.53;6.47;;;;;;;;;;5133602;28;20709;-79
2024/02/14 07:16:03;;;;;;;11.43;6.53;;;;;;;;;;5133488;28;20222;-78
2024/02/14 07:18:32;;;;;;;7.57;5.27;;;;;;;;;;5133331;28;20203;-78
2024/02/14 07:20:58;;;;;;;9.97;5.80;;;;;;;;;;5134394;28;20486;-79
2024/02/14 07:23:27;;;;;;;10.03;6.10;;;;;;;;;;5134440;28;20514;-78
2024/02/14 07:25:56;;;;;;;8.37;5.90;;;;;;;;;;5131806;28;20234;-77
2024/02/14 07:28:23;;;;;;;11.73;6.87;;;;;;;;;;5132238;28;20281;-79
2024/02/14 07:30:50;;;;;;;7.43;5.73;;;;;;;;;;5134410;28;20258;-78
2024/02/14 07:33:18;;;;;;;7.67;4.93;;;;;;;;;;5134440;28;20222;-78
2024/02/14 07:35:48;;;;;;;7.60;5.10;;;;;;;;;;5134287;28;20280;-78
2024/02/14 07:38:16;;;;;;;7.43;5.30;;;;;;;;;;5134877;28;20196;-78
2024/02/14 07:40:49;;;;;;;9.90;4.87;;;;;;;;;;5134701;28;20629;-78
2024/02/14 07:43:19;;;;;;;8.53;5.50;;;;;;;;;;5134824;28;20175;-78
2024/02/14 07:45:46;;;;;;;7.47;6.27;;;;;;;;;;5133809;28;20698;-80
2024/02/14 07:48:16;;;;;;;6.97;5.43;;;;;;;;;;5134397;28;20731;-78
2024/02/14 07:50:44;;;;;;;8.63;5.97;;;;;;;;;;5133854;28;20586;-79
2024/02/14 07:53:11;;;;;;;10.10;7.00;;;;;;;;;;5133950;28;20203;-79
2024/02/14 07:55:38;;;;;;;15.70;9.37;;;;;;;;;;5134673;28;20249;-78
2024/02/14 07:58:07;;;;;;;12.33;9.17;;;;;;;;;;5134298;28;20230;-78
2024/02/14 08:00:36;;;;;;;12.60;7.97;;;;;;;;;;5134551;28;20259;-78
2024/02/14 08:03:06;;;;;;;12.77;7.17;;;;;;;;;;5134464;28;20214;-78
2024/02/14 08:05:36;;;;;;;14.80;6.53;;;;;;;;;;5151095;27;20281;-78
2024/02/14 08:08:05;;;;;;;10.90;7.23;;;;;;;;;;5155257;27;20183;-79
2024/02/14 08:10:32;;;;;;;7.50;5.83;;;;;;;;;;5155178;27;20196;-78
2024/02/14 08:12:59;;;;;;;8.77;5.63;;;;;;;;;;5154388;27;20663;-77
2024/02/14 08:15:27;;;;;;;9.60;6.30;;;;;;;;;;5153946;27;20293;-79
2024/02/14 08:17:59;;;;;;;6.93;5.43;;;;;;;;;;5154971;27;20183;-79
2024/02/14 08:20:28;;;;;;;5.40;4.73;;;;;;;;;;5154489;27;20589;-79
2024/02/14 08:22:55;;;;;;;15.87;8.23;;;;;;;;;;5154656;27;20387;-79
2024/02/14 08:25:23;;;;;;;8.43;6.23;;;;;;;;;;5154326;27;20520;-77
2024/02/14 08:27:51;;;;;;;13.00;9.33;;;;;;;;;;5154958;27;20249;-77
2024/02/14 08:30:27;;;;;;;14.43;10.23;;;;;;;;;;5154795;27;20616;-78
2024/02/14 08:32:54;;;;;;;14.70;9.20;;;;;;;;;;5155145;27;20221;-78
2024/02/14 08:35:23;;;;;;;13.17;8.57;;;;;;;;;;5155071;27;20665;-78
2024/02/14 08:37:52;;;;;;;9.90;6.70;;;;;;;;;;5154756;27;20279;-78
2024/02/14 08:40:20;;;;;;;40.53;13.63;;;;;;;;;;5154654;27;20242;-78
2024/02/14 08:42:48;;;;;;;12.07;9.00;;;;;;;;;;5154674;27;20557;-79
2024/02/14 08:45:15;;;;;;;13.50;9.17;;;;;;;;;;5154297;27;20212;-78
2024/02/14 08:47:44;;;;;;;9.97;6.33;;;;;;;;;;5154473;27;20226;-78
2024/02/14 08:50:13;;;;;;;10.97;7.13;;;;;;;;;;5155214;27;20234;-78
2024/02/14 08:52:41;;;;;;;10.10;6.87;;;;;;;;;;5154959;27;20243;-78
2024/02/14 08:55:14;;;;;;;10.07;8.03;;;;;;;;;;5155238;27;20682;-78
2024/02/14 08:57:42;;;;;;;18.13;10.10;;;;;;;;;;5154503;27;20222;-78
2024/02/14 09:00:12;;;;;;;15.63;10.07;;;;;;;;;;5154249;27;20639;-79
2024/02/14 09:02:39;;;;;;;6.90;6.20;;;;;;;;;;5154465;27;20193;-78
2024/02/14 09:05:06;;;;;;;8.63;7.03;;;;;;;;;;5153690;27;20318;-78
2024/02/14 09:07:33;;;;;;;11.30;6.77;;;;;;;;;;5154480;27;20202;-78
2024/02/14 09:10:05;;;;;;;10.33;7.43;;;;;;;;;;5152875;27;20678;-78
2024/02/14 09:12:34;;;;;;;13.50;6.10;;;;;;;;;;5154206;27;20297;-80
2024/02/14 09:15:04;;;;;;;10.73;7.70;;;;;;;;;;5116603;27;315528;-78
2024/02/14 09:17:49;;;;;;;8.70;6.30;;;;;;;;;;5109897;27;316755;-79
2024/02/14 09:20:18;;;;;;;7.00;5.00;;;;;;;;;;5097817;27;414873;-79
2024/02/14 09:22:45;;;;;;;7.00;4.63;;;;;;;;;;5110245;27;324994;-78
2024/02/14 09:25:14;;;;;;;8.87;5.20;;;;;;;;;;5121002;27;316035;-79
2024/02/14 09:27:43;;;;;;;17.30;9.80;;;;;;;;;;5121885;27;314348;-79
2024/02/14 09:30:17;;;;;;;15.93;9.40;;;;;;;;;;5097627;27;415729;-79
2024/02/14 09:32:54;;;;;;;17.00;10.50;;;;;;;;;;5103443;27;317658;-79
2024/02/14 09:35:21;;;;;;;16.70;10.03;;;;;;;;;;5122137;27;318614;-78
2024/02/14 09:37:50;;;;;;;8.20;6.87;;;;;;;;;;5106905;27;322866;-79
2024/02/14 09:40:27;;;;;;;11.30;9.17;;;;;;;;;;5121584;27;315759;-78
2024/02/14 09:42:57;;;;;;;9.57;6.17;;;;;;;;;;5100191;27;341525;-78
2024/02/14 09:45:26;;;;;;;10.57;6.97;;;;;;;;;;5126414;27;316711;-78
2024/02/14 09:48:03;;;;;;;11.40;8.07;;;;;;;;;;5112617;27;317549;-77
2024/02/14 09:50:32;;;;;;;17.83;12.23;;;;;;;;;;5132427;27;317703;-77
2024/02/14 09:53:04;;;;;;;9.37;6.67;;;;;;;;;;5123124;27;318886;-77
2024/02/14 09:55:34;;;;;;;15.47;10.87;;;;;;;;;;5130461;27;314394;-79
2024/02/14 09:58:05;;;;;;;17.27;10.00;;;;;;;;;;5105268;27;317515;-79
2024/02/14 10:00:34;;;;;;;20.00;11.17;;;;;;;;;;5125316;27;316345;-77
2024/02/14 10:03:01;;;;;;;8.10;6.10;;;;;;;;;;5112006;27;346891;-79
2024/02/14 10:05:31;;;;;;;9.70;6.20;;;;;;;;;;5113289;27;345378;-79
2024/02/14 10:07:59;;;;;;;19.83;10.73;;;;;;;;;;5104563;27;316114;-78
2024/02/14 10:10:29;;;;;;;25.67;15.00;;;;;;;;;;5125031;27;319427;-78
2024/02/14 10:13:00;;;;;;;10.83;7.40;;;;;;;;;;5113247;27;319161;-79
2024/02/14 10:15:27;;;;;;;11.80;8.27;;;;;;;;;;5124084;27;316757;-78
2024/02/14 10:17:54;;;;;;;7.93;6.00;;;;;;;;;;5094916;27;333099;-78
2024/02/14 10:20:22;;;;;;;14.97;10.23;;;;;;;;;;5113901;27;317216;-79
2024/02/14 10:22:52;;;;;;;13.40;9.10;;;;;;;;;;5100883;27;317970;-79
2024/02/14 10:25:21;;;;;;;14.00;11.23;;;;;;;;;;5121474;27;317485;-79
2024/02/14 10:27:47;;;;;;;13.33;8.50;;;;;;;;;;5109889;27;318789;-78
2024/02/14 10:30:17;;;;;;;7.87;6.47;;;;;;;;;;5098500;27;317356;-78
2024/02/14 10:32:48;;;;;;;11.30;7.93;;;;;;;;;;5112111;27;316450;-79
2024/02/14 10:35:17;;;;;;;16.73;8.80;;;;;;;;;;5122587;27;317104;-79
2024/02/14 10:37:46;;;;;;;15.37;10.43;;;;;;;;;;5110849;27;330320;-78
2024/02/14 10:40:17;;;;;;;11.27;8.53;;;;;;;;;;5109249;27;318123;-78
2024/02/14 10:42:44;;;;;;;10.13;7.70;;;;;;;;;;5107632;27;317069;-79
2024/02/14 10:45:11;;;;;;;14.87;9.20;;;;;;;;;;5122687;27;316371;-79
2024/02/14 10:47:47;;;;;;;7.60;4.43;;;;;;;;;;5122324;27;316875;-79
2024/02/14 10:50:19;;;;;;;5.13;4.40;;;;;;;;;;5082578;27;415484;-79
2024/02/14 10:52:49;;;;;;;7.87;5.77;;;;;;;;;;5112271;27;316382;-78
2024/02/14 10:55:20;;;;;;;7.00;4.93;;;;;;;;;;5125209;27;316493;-79
2024/02/14 10:57:57;;;;;;;5.53;4.47;;;;;;;;;;5113320;27;316140;-78
2024/02/14 11:00:26;;;;;;;8.97;5.23;;;;;;;;;;5124827;27;316480;-78
2024/02/14 11:03:01;;;;;;;5.37;4.60;;;;;;;;;;5113409;27;316674;-78
2024/02/14 11:05:29;;;;;;;6.80;4.53;;;;;;;;;;5125266;27;315990;-79
2024/02/14 11:08:09;;;;;;;12.80;5.03;;;;;;;;;;5103958;27;316166;-76
2024/02/14 11:10:38;;;;;;;7.90;5.40;;;;;;;;;;5123949;27;317053;-77
2024/02/14 11:13:18;;;;;;;38.40;22.33;;;;;;;;;;5113393;27;316041;-77
2024/02/14 11:15:51;;;;;;;12.87;8.77;;;;;;;;;;5113768;27;318134;-77
2024/02/14 11:18:26;;;;;;;11.13;7.70;;;;;;;;;;5095791;27;317142;-77
2024/02/14 11:20:57;;;;;;;8.70;4.50;;;;;;;;;;5117807;27;317036;-76
2024/02/14 11:23:31;;;;;;;11.97;6.87;;;;;;;;;;5127786;27;315532;-78
2024/02/14 11:26:04;;;;;;;8.50;5.80;;;;;;;;;;5107817;27;317305;-77
2024/02/14 11:28:31;;;;;;;8.90;6.47;;;;;;;;;;5130722;27;315493;-78
2024/02/14 11:33:33;;;;;;;9.73;5.73;;;;;;;;;;5131916;27;315663;-79
2024/02/14 11:36:14;;;;;;;7.97;5.70;;;;;;;;;;5107660;27;316122;-79
2024/02/14 11:38:42;;;;;;;6.53;4.10;;;;;;;;;;5125387;27;315937;-79
2024/02/14 11:41:16;;;;;;;4.83;3.83;;;;;;;;;;5099076;27;417203;-78
2024/02/14 11:43:52;;;;;;;13.77;4.70;;;;;;;;;;5111499;27;316180;-79
2024/02/14 11:46:22;;;;;;;8.33;6.73;;;;;;;;;;5112194;27;349390;-79
2024/02/14 11:48:55;;;;;;;12.40;6.77;;;;;;;;;;5100593;27;315425;-77
2024/02/14 11:51:21;;;;;;;10.30;6.30;;;;;;;;;;5122905;27;347249;-80
2024/02/14 11:53:50;;;;;;;8.80;5.90;;;;;;;;;;5109551;27;318152;-78
2024/02/14 11:56:20;;;;;;;40.13;14.93;;;;;;;;;;5123740;27;317255;-77
2024/02/14 11:58:51;;;;;;;9.60;4.60;;;;;;;;;;5112414;27;319437;-78
2024/02/14 12:01:18;;;;;;;15.93;4.43;;;;;;;;;;5125028;27;317219;-78
2024/02/14 12:03:48;;;;;;;6.13;4.13;;;;;;;;;;5119340;27;318217;-78
2024/02/14 12:06:19;;;;;;;11.93;6.53;;;;;;;;;;5139626;27;316096;-79
2024/02/14 12:08:47;;;;;;;8.20;5.33;;;;;;;;;;5131986;27;317706;-77
2024/02/14 12:11:13;;;;;;;6.97;4.77;;;;;;;;;;5144942;27;316150;-78
2024/02/14 12:13:43;;;;;;;13.33;5.40;;;;;;;;;;5145691;27;315738;-77
2024/02/14 12:16:20;;;;;;;11.27;5.90;;;;;;;;;;5122497;27;417626;-77
2024/02/14 12:18:49;;;;;;;9.40;5.77;;;;;;;;;;5130061;27;316736;-77
2024/02/14 12:21:19;;;;;;;12.50;7.90;;;;;;;;;;5135888;27;316363;-80
2024/02/14 12:23:49;;;;;;;18.00;10.73;;;;;;;;;;5115451;27;318143;-78
2024/02/14 12:26:19;;;;;;;10.17;7.00;;;;;;;;;;5127165;27;319050;-79
2024/02/14 12:28:48;;;;;;;11.87;7.93;;;;;;;;;;5112682;27;318315;-79
2024/02/14 12:31:26;;;;;;;10.30;6.47;;;;;;;;;;5122344;27;317441;-77
2024/02/14 12:33:55;;;;;;;30.37;14.80;;;;;;;;;;5103728;27;318219;-77
2024/02/14 12:36:23;;;;;;;6.33;4.50;;;;;;;;;;5122146;27;332670;-79
2024/02/14 12:38:52;;;;;;;7.53;4.47;;;;;;;;;;5112372;27;317159;-78
2024/02/14 12:41:19;;;;;;;24.93;14.10;;;;;;;;;;5124343;27;317372;-78
2024/02/14 12:43:46;;;;;;;10.50;6.93;;;;;;;;;;5111744;27;319336;-78
2024/02/14 12:46:15;;;;;;;12.57;8.03;;;;;;;;;;5116826;27;318157;-80
2024/02/14 12:48:42;;;;;;;16.47;8.93;;;;;;;;;;5121957;27;317830;-76
2024/02/14 12:51:10;;;;;;;8.07;5.30;;;;;;;;;;5107020;27;417802;-79
2024/02/14 12:53:40;;;;;;;5.23;4.07;;;;;;;;;;5122106;27;315606;-79
2024/02/14 12:56:09;;;;;;;6.50;4.60;;;;;;;;;;5099538;27;417885;-76
2024/02/14 12:58:37;;;;;;;6.70;5.10;;;;;;;;;;5120291;27;317366;-78
2024/02/14 13:01:07;;;;;;;11.03;5.97;;;;;;;;;;5109657;27;317067;-77
2024/02/14 13:03:35;;;;;;;7.93;5.20;;;;;;;;;;5122338;27;317642;-78
2024/02/14 13:06:04;;;;;;;7.37;4.30;;;;;;;;;;5105125;27;316736;-78
2024/02/14 13:08:32;;;;;;;7.67;5.67;;;;;;;;;;5122810;27;317198;-78
2024/02/14 13:11:01;;;;;;;9.23;6.73;;;;;;;;;;5111622;27;316496;-78
2024/02/14 13:13:29;;;;;;;22.83;11.67;;;;;;;;;;5111264;27;317135;-78
2024/02/14 13:15:56;;;;;;;12.27;6.83;;;;;;;;;;5102354;27;318615;-79
2024/02/14 13:18:24;;;;;;;10.27;5.07;;;;;;;;;;5123473;27;318138;-78
2024/02/14 13:20:57;;;;;;;11.47;6.63;;;;;;;;;;5113648;27;317940;-77
2024/02/14 13:23:24;;;;;;;9.57;5.70;;;;;;;;;;5123601;27;319047;-78
2024/02/14 13:25:53;;;;;;;11.27;5.20;;;;;;;;;;5105125;27;317162;-77
2024/02/14 13:28:21;;;;;;;11.97;5.10;;;;;;;;;;5124027;27;318136;-77
2024/02/14 13:30:51;;;;;;;11.77;7.57;;;;;;;;;;5112181;27;318245;-78
2024/02/14 13:33:20;;;;;;;15.40;10.97;;;;;;;;;;5125131;27;318244;-78
2024/02/14 13:35:54;;;;;;;14.20;9.40;;;;;;;;;;5112090;27;319365;-78
2024/02/14 13:38:22;;;;;;;10.47;6.40;;;;;;;;;;5121200;27;318244;-77
2024/02/14 13:40:49;;;;;;;10.67;6.53;;;;;;;;;;5110339;27;334578;-77
2024/02/14 13:43:17;;;;;;;11.53;8.20;;;;;;;;;;5123508;27;318179;-77
2024/02/14 13:45:47;;;;;;;9.17;6.83;;;;;;;;;;5112696;27;318130;-77
2024/02/14 13:48:14;;;;;;;7.40;5.77;;;;;;;;;;5121275;27;317337;-77
2024/02/14 13:50:41;;;;;;;10.43;7.97;;;;;;;;;;5123945;27;317067;-78
2024/02/14 13:53:09;;;;;;;10.43;7.73;;;;;;;;;;5107813;27;417668;-77
2024/02/14 13:55:38;;;;;;;18.70;10.60;;;;;;;;;;5125756;27;318130;-78
2024/02/14 13:58:05;;;;;;;28.87;16.40;;;;;;;;;;5101662;27;346959;-78
2024/02/14 14:00:33;;;;;;;23.37;14.43;;;;;;;;;;5121796;27;336283;-77
2024/02/14 14:03:02;;;;;;;21.80;14.30;;;;;;;;;;5112905;27;319729;-79
2024/02/14 14:05:33;;;;;;;18.97;11.30;;;;;;;;;;5124737;27;319123;-78
2024/02/14 14:08:00;;;;;;;17.43;12.83;;;;;;;;;;5104938;27;319139;-77
2024/02/14 14:10:28;;;;;;;16.53;8.07;;;;;;;;;;5121935;27;319339;-77
2024/02/14 14:12:56;;;;;;;10.33;8.17;;;;;;;;;;5111955;27;318292;-77
2024/02/14 14:15:26;;;;;;;10.83;7.90;;;;;;;;;;5122166;27;317782;-77
2024/02/14 14:17:52;;;;;;;10.93;6.27;;;;;;;;;;5104829;27;318339;-77
2024/02/14 14:20:24;;;;;;;13.33;8.43;;;;;;;;;;5123270;27;317805;-78
2024/02/14 14:22:53;;;;;;;11.03;7.47;;;;;;;;;;5111333;27;318132;-78
2024/02/14 14:25:20;;;;;;;8.97;7.07;;;;;;;;;;5123640;27;318529;-78
2024/02/14 14:27:46;;;;;;;8.53;5.63;;;;;;;;;;5109854;27;382281;-78
2024/02/14 14:30:15;;;;;;;9.27;6.57;;;;;;;;;;5115906;27;316672;-78
2024/02/14 14:32:42;;;;;;;9.27;7.17;;;;;;;;;;5122038;27;317026;-78
2024/02/14 14:35:10;;;;;;;18.97;12.63;;;;;;;;;;5109533;27;416304;-78
2024/02/14 14:37:38;;;;;;;22.37;13.10;;;;;;;;;;5123658;27;317569;-78
2024/02/14 14:40:08;;;;;;;19.57;11.97;;;;;;;;;;5104919;27;319018;-77
2024/02/14 14:42:36;;;;;;;17.60;9.37;;;;;;;;;;5123663;27;318858;-77